Time;durP1;ratioP1;P1;durP2;ratioP2;P2;SDS_P1;SDS_P2;PMS_P1;PMS_P2;Temp;Humidity;BMP_temperature;BMP_pressure;BME280_temperature;BME280_humidity;BME280_pressure;Samples;Min_cycle;Max_cycle;Signal;HPM_P1;HPM_P2
2022/11/07 00:02:03;;;;;;;4.27;1.73;;;10.10;99.90;;;;;;6069769;23;20179;-43
2022/11/07 00:04:30;;;;;;;6.90;1.50;;;10.00;99.90;;;;;;6069684;23;20236;-44
2022/11/07 00:06:57;;;;;;;5.50;1.73;;;10.00;99.90;;;;;;6069650;23;20591;-44
2022/11/07 00:09:22;;;;;;;1.30;1.20;;;10.00;99.90;;;;;;6069649;23;20169;-44
2022/11/07 00:11:48;;;;;;;3.50;1.80;;;10.00;99.90;;;;;;6070153;23;20278;-44
2022/11/07 00:14:15;;;;;;;3.63;2.00;;;10.00;99.90;;;;;;6070096;23;20589;-44
2022/11/07 00:16:42;;;;;;;2.90;1.90;;;10.00;99.90;;;;;;6070000;23;20285;-43
2022/11/07 00:19:08;;;;;;;3.97;1.53;;;10.00;99.90;;;;;;6069471;23;20732;-44
2022/11/07 00:21:33;;;;;;;2.20;1.40;;;10.00;99.90;;;;;;6069304;23;20190;-43
2022/11/07 00:23:59;;;;;;;6.97;1.70;;;10.00;99.90;;;;;;6069812;23;20174;-42
2022/11/07 00:26:25;;;;;;;3.07;1.70;;;10.00;99.90;;;;;;6069577;23;20167;-45
2022/11/07 00:28:50;;;;;;;3.20;1.50;;;10.00;99.90;;;;;;6069769;23;20181;-44
2022/11/07 00:31:17;;;;;;;5.63;1.77;;;10.00;99.90;;;;;;6069659;23;20226;-44
2022/11/07 00:33:43;;;;;;;5.77;1.90;;;10.00;99.90;;;;;;6069719;23;20159;-44
2022/11/07 00:36:15;;;;;;;6.93;1.83;;;10.10;99.90;;;;;;6069336;23;20163;-42
2022/11/07 00:38:41;;;;;;;4.30;1.60;;;10.10;99.90;;;;;;6069730;23;20506;-43
2022/11/07 00:41:06;;;;;;;6.33;1.63;;;10.10;99.90;;;;;;6069111;23;20174;-42
2022/11/07 00:43:33;;;;;;;7.60;1.80;;;10.20;99.90;;;;;;6069772;23;20163;-43
2022/11/07 00:46:03;;;;;;;4.77;2.03;;;10.30;99.90;;;;;;6069340;23;20167;-44
2022/11/07 00:48:30;;;;;;;3.93;1.20;;;10.30;99.90;;;;;;6069620;23;20230;-44
2022/11/07 00:50:55;;;;;;;5.17;1.20;;;10.40;99.90;;;;;;6069433;23;20191;-46
2022/11/07 00:53:21;;;;;;;4.67;1.53;;;10.40;99.90;;;;;;6069332;23;20307;-44
2022/11/07 00:55:46;;;;;;;3.77;1.03;;;10.40;99.90;;;;;;6069550;23;20156;-43
2022/11/07 00:58:12;;;;;;;2.73;1.17;;;10.40;99.90;;;;;;6069562;23;20202;-44
2022/11/07 01:00:38;;;;;;;5.57;1.50;;;10.40;99.90;;;;;;6069491;23;20169;-43
2022/11/07 01:05:59;;;;;;;5.80;1.60;;;10.40;99.90;;;;;;6069294;23;20151;-43
2022/11/07 01:08:25;;;;;;;6.43;2.07;;;10.40;99.90;;;;;;6069258;23;20185;-43
2022/11/07 01:10:51;;;;;;;8.00;1.60;;;10.40;99.90;;;;;;6069001;23;20182;-45
2022/11/07 01:13:17;;;;;;;6.67;1.43;;;10.40;99.90;;;;;;6069137;23;20163;-43
2022/11/07 01:15:42;;;;;;;3.87;1.60;;;10.40;99.90;;;;;;6069119;23;20158;-44
2022/11/07 01:18:08;;;;;;;5.30;1.80;;;10.40;99.90;;;;;;6068974;23;20179;-44
2022/11/07 01:20:34;;;;;;;1.43;1.10;;;10.30;99.90;;;;;;6070004;23;20221;-50
2022/11/07 01:22:59;;;;;;;5.97;1.57;;;10.30;99.90;;;;;;6069053;23;20185;-47
2022/11/07 01:25:25;;;;;;;5.87;1.70;;;10.30;99.90;;;;;;6068978;23;20584;-50
2022/11/07 01:27:50;;;;;;;9.03;1.97;;;10.30;99.90;;;;;;6068969;23;20624;-48
2022/11/07 01:30:16;;;;;;;7.77;2.00;;;10.30;99.90;;;;;;6068821;23;20619;-49
2022/11/07 01:32:42;;;;;;;5.63;1.40;;;10.30;99.90;;;;;;6069204;23;20594;-49
2022/11/07 01:35:07;;;;;;;5.97;2.07;;;10.30;99.90;;;;;;6068983;23;20159;-48
2022/11/07 01:37:33;;;;;;;3.33;1.33;;;10.30;99.90;;;;;;6068759;23;20191;-49
2022/11/07 01:39:59;;;;;;;4.30;1.50;;;10.30;99.90;;;;;;6069148;23;20160;-50
2022/11/07 01:42:24;;;;;;;7.77;1.70;;;10.40;99.90;;;;;;6068899;23;20173;-49
2022/11/07 01:44:54;;;;;;;10.97;1.97;;;10.30;99.90;;;;;;6069086;23;20159;-48
2022/11/07 01:47:21;;;;;;;3.47;1.27;;;10.40;99.90;;;;;;6068538;23;20191;-48
2022/11/07 01:49:47;;;;;;;4.60;1.23;;;10.40;99.90;;;;;;6068590;23;20185;-50
2022/11/07 01:52:22;;;;;;;8.67;1.70;;;10.40;99.90;;;;;;6068409;23;20529;-49
2022/11/07 01:55:03;;;;;;;3.87;1.57;;;10.40;99.90;;;;;;6069039;23;20223;-50
2022/11/07 01:57:34;;;;;;;11.67;2.37;;;10.40;99.90;;;;;;6068640;23;20589;-49
2022/11/07 02:00:02;;;;;;;6.60;1.13;;;10.50;99.90;;;;;;6069264;23;20229;-49
2022/11/07 02:02:28;;;;;;;3.87;1.43;;;10.50;99.90;;;;;;6043191;23;20291;-48
2022/11/07 02:04:56;;;;;;;5.73;1.63;;;10.40;99.90;;;;;;6068940;23;20175;-50
2022/11/07 02:07:23;;;;;;;6.13;1.30;;;10.50;99.90;;;;;;6068648;23;20185;-48
2022/11/07 02:09:51;;;;;;;7.93;2.13;;;10.50;99.90;;;;;;6042889;23;20205;-48
2022/11/07 02:12:18;;;;;;;6.57;1.60;;;10.50;99.90;;;;;;6068631;23;20191;-48
2022/11/07 02:14:43;;;;;;;10.57;1.67;;;10.50;99.90;;;;;;6068455;23;20152;-50
2022/11/07 02:17:11;;;;;;;6.10;1.37;;;10.50;99.90;;;;;;6068611;23;20158;-48
2022/11/07 02:19:42;;;;;;;6.40;1.73;;;10.50;99.90;;;;;;6068115;23;20592;-48
2022/11/07 02:22:31;;;;;;;4.90;1.50;;;10.50;99.90;;;;;;6068358;23;20172;-49
2022/11/07 02:24:59;;;;;;;4.67;1.80;;;10.50;99.90;;;;;;6068748;23;20473;-49
2022/11/07 02:27:28;;;;;;;7.97;1.73;;;10.50;99.90;;;;;;6068395;23;20187;-48
2022/11/07 02:30:06;;;;;;;10.73;1.63;;;10.40;99.90;;;;;;6068292;23;20185;-49
2022/11/07 02:32:32;;;;;;;3.90;1.60;;;10.50;99.90;;;;;;6068764;23;20167;-49
2022/11/07 02:35:00;;;;;;;5.53;1.77;;;10.50;99.90;;;;;;6068713;23;20180;-49
2022/11/07 02:37:30;;;;;;;6.63;1.30;;;10.50;99.90;;;;;;6068182;23;20194;-50
2022/11/07 02:39:57;;;;;;;6.33;1.70;;;10.50;99.90;;;;;;6068286;23;20158;-49
2022/11/07 02:42:23;;;;;;;10.73;1.70;;;10.50;99.90;;;;;;6068289;23;20230;-49
2022/11/07 02:44:52;;;;;;;12.47;1.77;;;10.40;99.90;;;;;;6068282;23;20163;-49
2022/11/07 02:47:17;;;;;;;10.10;2.17;;;10.50;99.90;;;;;;6043311;23;20186;-48
2022/11/07 02:49:43;;;;;;;7.17;1.50;;;10.50;99.90;;;;;;6068437;23;20161;-48
2022/11/07 02:52:08;;;;;;;7.47;1.80;;;10.50;99.90;;;;;;6068221;23;20161;-47
2022/11/07 02:54:34;;;;;;;5.40;1.37;;;10.50;99.90;;;;;;6068592;23;20211;-50
2022/11/07 02:57:00;;;;;;;5.37;1.53;;;10.60;99.90;;;;;;6068430;23;20163;-50
2022/11/07 02:59:25;;;;;;;11.50;2.70;;;10.60;99.90;;;;;;6068188;23;20163;-51
2022/11/07 03:01:51;;;;;;;4.33;1.67;;;10.50;99.90;;;;;;6068509;23;20483;-49
2022/11/07 03:04:16;;;;;;;8.53;1.80;;;10.60;99.90;;;;;;6069342;23;20158;-49
2022/11/07 03:06:42;;;;;;;7.80;1.53;;;10.60;99.90;;;;;;6070186;23;20159;-49
2022/11/07 03:09:07;;;;;;;6.90;1.63;;;10.50;99.90;;;;;;6044809;23;20179;-50
2022/11/07 03:11:33;;;;;;;11.37;2.20;;;10.60;99.90;;;;;;6070057;23;20181;-49
2022/11/07 03:13:59;;;;;;;10.13;1.50;;;10.60;99.90;;;;;;6070511;23;20156;-50
2022/11/07 03:16:24;;;;;;;6.57;1.77;;;10.60;99.90;;;;;;6070060;23;20161;-49
2022/11/07 03:18:50;;;;;;;8.03;1.80;;;10.60;99.90;;;;;;6069878;23;20179;-48
2022/11/07 03:21:15;;;;;;;8.50;1.63;;;10.60;99.90;;;;;;6069823;23;20172;-50
2022/11/07 03:23:41;;;;;;;10.03;1.50;;;10.60;99.90;;;;;;6069873;23;20178;-48
2022/11/07 03:26:06;;;;;;;7.07;1.70;;;10.60;99.90;;;;;;6069937;23;20156;-49
2022/11/07 03:28:32;;;;;;;6.13;1.90;;;10.60;99.90;;;;;;6070034;23;20579;-49
2022/11/07 03:31:00;;;;;;;5.90;1.97;;;10.60;99.90;;;;;;6070318;23;20243;-50
2022/11/07 03:33:26;;;;;;;5.60;1.67;;;10.60;99.90;;;;;;6070286;23;20217;-49
2022/11/07 03:35:53;;;;;;;8.83;1.80;;;10.60;99.90;;;;;;6070308;23;20537;-50
2022/11/07 03:38:19;;;;;;;6.23;1.97;;;10.60;99.90;;;;;;6070813;23;20186;-47
2022/11/07 03:40:45;;;;;;;5.80;2.27;;;10.60;99.90;;;;;;6069738;23;20497;-47
2022/11/07 03:43:10;;;;;;;10.67;2.30;;;10.60;99.90;;;;;;6069721;23;20156;-49
2022/11/07 03:45:36;;;;;;;7.30;1.53;;;10.50;99.90;;;;;;6070385;23;20166;-46
2022/11/07 03:48:02;;;;;;;8.40;1.63;;;10.60;99.90;;;;;;6070232;23;20189;-47
2022/11/07 03:50:27;;;;;;;4.00;1.43;;;10.60;99.90;;;;;;6044059;23;20210;-49
2022/11/07 03:52:53;;;;;;;5.70;1.70;;;10.50;99.90;;;;;;6069717;23;20189;-47
2022/11/07 03:55:19;;;;;;;5.20;1.43;;;10.60;99.90;;;;;;6069632;23;20163;-47
2022/11/07 03:57:45;;;;;;;7.03;1.93;;;10.50;99.90;;;;;;6069614;23;20178;-48
2022/11/07 04:00:12;;;;;;;6.40;1.90;;;10.50;99.90;;;;;;6069531;23;20599;-48
2022/11/07 04:02:37;;;;;;;8.57;2.10;;;10.50;99.90;;;;;;6069783;23;20166;-46
2022/11/07 04:05:04;;;;;;;10.27;2.10;;;10.50;99.90;;;;;;6070174;23;20161;-48
2022/11/07 04:07:29;;;;;;;6.80;1.63;;;10.50;99.90;;;;;;6070053;23;20179;-48
2022/11/07 04:09:55;;;;;;;9.37;2.00;;;10.50;99.90;;;;;;6069496;23;20183;-46
2022/11/07 04:17:49;;;;;;;7.10;1.80;;;10.50;99.90;;;;;;6069811;23;20231;-47
2022/11/07 04:20:14;;;;;;;10.37;1.80;;;10.50;99.90;;;;;;6069548;23;20173;-47
2022/11/07 04:22:40;;;;;;;9.23;1.93;;;10.50;99.90;;;;;;6069254;23;20173;-46
2022/11/07 04:25:06;;;;;;;6.93;1.80;;;10.50;99.90;;;;;;6069468;23;20160;-46
2022/11/07 04:27:45;;;;;;;12.53;2.40;;;10.50;99.90;;;;;;6069637;23;20183;-47
2022/11/07 04:30:25;;;;;;;4.47;1.63;;;10.50;99.90;;;;;;6070267;23;20171;-49
2022/11/07 04:32:56;;;;;;;3.90;1.40;;;10.50;99.90;;;;;;6070089;23;20589;-47
2022/11/07 04:35:24;;;;;;;10.20;2.03;;;10.50;99.90;;;;;;6069265;23;20154;-47
2022/11/07 04:37:50;;;;;;;11.90;2.10;;;10.50;99.90;;;;;;6044397;23;20180;-47
2022/11/07 04:40:16;;;;;;;10.47;2.20;;;10.50;99.90;;;;;;6069415;23;20632;-47
2022/11/07 04:42:43;;;;;;;5.67;1.23;;;10.50;99.90;;;;;;6043837;23;20253;-48
2022/11/07 04:45:10;;;;;;;6.63;1.60;;;10.50;99.90;;;;;;6069400;23;20223;-47
2022/11/07 04:47:36;;;;;;;6.50;1.70;;;10.50;99.90;;;;;;6069345;23;20184;-50
2022/11/07 04:50:03;;;;;;;8.73;2.10;;;10.50;99.90;;;;;;6069325;23;20187;-47
2022/11/07 04:52:28;;;;;;;5.13;1.40;;;10.50;99.90;;;;;;6069387;23;20240;-47
2022/11/07 04:54:54;;;;;;;9.60;1.30;;;10.50;99.90;;;;;;6069777;23;20626;-49
2022/11/07 04:57:20;;;;;;;8.83;2.20;;;10.50;99.90;;;;;;6069601;23;20516;-49
2022/11/07 04:59:45;;;;;;;4.13;1.40;;;10.50;99.90;;;;;;6069709;23;20531;-48
2022/11/07 05:02:11;;;;;;;10.17;1.90;;;10.60;99.90;;;;;;6069375;23;20157;-50
2022/11/07 05:04:37;;;;;;;7.63;1.60;;;10.60;99.90;;;;;;6069261;23;20497;-47
2022/11/07 05:07:03;;;;;;;8.70;1.77;;;10.60;99.90;;;;;;6069493;23;20207;-48
2022/11/07 05:09:29;;;;;;;7.00;1.47;;;10.60;99.90;;;;;;6069679;23;20161;-48
2022/11/07 05:11:55;;;;;;;9.13;1.80;;;10.60;99.90;;;;;;6043842;23;20198;-50
2022/11/07 05:14:21;;;;;;;10.77;1.80;;;10.60;99.90;;;;;;6069279;23;20155;-49
2022/11/07 05:16:49;;;;;;;6.30;1.47;;;10.60;99.90;;;;;;6069595;23;20160;-48
2022/11/07 05:19:16;;;;;;;10.80;1.87;;;10.60;99.90;;;;;;6043604;23;20218;-50
2022/11/07 05:21:42;;;;;;;10.57;1.60;;;10.60;99.90;;;;;;6069091;23;20165;-49
2022/11/07 05:24:08;;;;;;;5.90;1.63;;;10.60;99.90;;;;;;6069536;23;20160;-48
2022/11/07 05:26:33;;;;;;;14.43;1.93;;;10.70;99.90;;;;;;6069077;23;20234;-49
2022/11/07 05:28:59;;;;;;;8.63;1.93;;;10.70;99.90;;;;;;6069119;23;20622;-48
2022/11/07 05:31:25;;;;;;;11.63;1.77;;;10.70;99.90;;;;;;6069137;23;20254;-50
2022/11/07 05:33:52;;;;;;;7.63;1.37;;;10.70;99.90;;;;;;6069342;23;20262;-50
2022/11/07 05:36:20;;;;;;;12.10;1.50;;;10.70;99.90;;;;;;6069019;23;20156;-50
2022/11/07 05:38:48;;;;;;;8.33;1.60;;;10.80;99.90;;;;;;6069180;23;20240;-49
2022/11/07 05:41:16;;;;;;;5.97;1.60;;;10.80;99.90;;;;;;6069253;23;20609;-50
2022/11/07 05:43:41;;;;;;;7.20;1.40;;;10.90;99.90;;;;;;6069283;23;20247;-48
2022/11/07 05:46:07;;;;;;;9.87;1.63;;;10.90;99.90;;;;;;6068993;23;20194;-49
2022/11/07 05:48:33;;;;;;;7.57;1.70;;;11.00;99.90;;;;;;6068822;23;20186;-50
2022/11/07 05:50:59;;;;;;;13.53;2.40;;;11.00;99.90;;;;;;6068779;23;20194;-48
2022/11/07 05:53:25;;;;;;;7.00;1.37;;;11.10;99.90;;;;;;6069520;23;20158;-48
2022/11/07 05:55:51;;;;;;;11.40;2.27;;;11.00;99.90;;;;;;6068912;23;20194;-49
2022/11/07 05:58:18;;;;;;;6.13;1.50;;;11.10;99.90;;;;;;6070272;23;20199;-47
2022/11/07 06:00:44;;;;;;;5.33;1.20;;;11.10;99.90;;;;;;6069426;23;20465;-48
2022/11/07 06:03:09;;;;;;;9.60;1.77;;;11.10;99.90;;;;;;6069204;23;20172;-48
2022/11/07 06:05:37;;;;;;;6.30;1.40;;;11.20;99.90;;;;;;6069313;23;20172;-47
2022/11/07 06:08:04;;;;;;;7.83;1.57;;;11.20;99.90;;;;;;6068819;23;20183;-48
2022/11/07 06:10:29;;;;;;;7.50;1.90;;;11.10;99.90;;;;;;6068900;23;20187;-47
2022/11/07 06:13:00;;;;;;;4.37;1.20;;;11.10;99.90;;;;;;6069074;23;20254;-47
2022/11/07 06:15:30;;;;;;;6.93;1.77;;;11.10;99.90;;;;;;6068937;23;20163;-47
2022/11/07 06:18:01;;;;;;;7.70;1.43;;;11.10;99.90;;;;;;6068672;23;20489;-48
2022/11/07 06:20:27;;;;;;;11.50;2.00;;;11.10;99.90;;;;;;6068968;23;20154;-48
2022/11/07 06:23:01;;;;;;;7.70;1.73;;;11.20;99.90;;;;;;6068621;23;20185;-47
2022/11/07 06:25:27;;;;;;;10.40;1.50;;;11.10;99.90;;;;;;6069158;23;20158;-47
2022/11/07 06:27:58;;;;;;;11.07;1.77;;;11.20;99.90;;;;;;6068560;23;20265;-47
2022/11/07 06:30:24;;;;;;;8.37;1.60;;;11.20;99.90;;;;;;6043238;23;20502;-47
2022/11/07 06:32:49;;;;;;;9.77;1.97;;;11.20;99.90;;;;;;6068935;23;20213;-48
2022/11/07 06:35:15;;;;;;;11.17;1.80;;;11.20;99.90;;;;;;6068629;23;20155;-47
2022/11/07 06:37:40;;;;;;;8.40;1.80;;;11.30;99.90;;;;;;6068720;23;20633;-49
2022/11/07 06:40:07;;;;;;;10.27;2.17;;;11.30;99.90;;;;;;6070853;23;20166;-48
2022/11/07 06:42:32;;;;;;;5.80;1.33;;;11.30;99.90;;;;;;6073492;23;20193;-46
2022/11/07 06:44:58;;;;;;;9.47;1.80;;;11.40;99.90;;;;;;6073795;23;20156;-48
2022/11/07 06:47:23;;;;;;;5.27;1.30;;;11.40;99.90;;;;;;6047352;23;20183;-46
2022/11/07 06:49:49;;;;;;;13.77;2.07;;;11.40;99.90;;;;;;6071314;23;20186;-48
2022/11/07 06:52:15;;;;;;;7.90;2.37;;;11.50;99.90;;;;;;6071807;23;20184;-47
2022/11/07 06:54:41;;;;;;;9.93;1.50;;;11.60;99.90;;;;;;6070441;23;20169;-47
2022/11/07 06:57:08;;;;;;;5.60;1.67;;;11.60;99.90;;;;;;6068388;23;20288;-46
2022/11/07 06:59:33;;;;;;;9.77;1.83;;;11.60;99.90;;;;;;6068938;23;20151;-46
2022/11/07 07:01:59;;;;;;;8.77;1.50;;;11.60;99.90;;;;;;6068464;23;20162;-47
2022/11/07 07:04:24;;;;;;;5.53;1.20;;;11.70;99.90;;;;;;6068525;23;20166;-47
2022/11/07 07:06:50;;;;;;;10.27;2.13;;;11.70;99.90;;;;;;6068502;23;20162;-48
2022/11/07 07:09:16;;;;;;;8.43;1.43;;;11.70;99.90;;;;;;6068733;23;20189;-48
2022/11/07 07:11:43;;;;;;;10.60;2.27;;;11.70;99.90;;;;;;6068642;23;20218;-50
2022/11/07 07:14:09;;;;;;;6.43;1.50;;;11.80;99.90;;;;;;6068430;23;20158;-49
2022/11/07 07:16:35;;;;;;;7.90;1.50;;;11.80;99.90;;;;;;6068606;23;20599;-47
2022/11/07 07:19:00;;;;;;;6.70;1.47;;;11.90;99.90;;;;;;6068358;23;20261;-50
2022/11/07 07:21:26;;;;;;;4.87;1.67;;;11.90;99.90;;;;;;6043032;23;20196;-48
2022/11/07 07:23:52;;;;;;;4.87;1.50;;;11.80;99.90;;;;;;6068748;23;20166;-47
2022/11/07 07:26:17;;;;;;;15.60;1.90;;;11.90;99.90;;;;;;6068726;23;20156;-47
2022/11/07 07:28:43;;;;;;;8.03;1.43;;;12.00;99.90;;;;;;6069661;23;20186;-48
2022/11/07 07:31:14;;;;;;;8.57;2.20;;;12.00;99.90;;;;;;6068994;23;20692;-46
2022/11/07 07:33:41;;;;;;;10.43;1.60;;;12.00;99.90;;;;;;6042973;23;20185;-48
2022/11/07 07:36:07;;;;;;;13.57;1.97;;;12.00;99.90;;;;;;6068541;23;20156;-47
2022/11/07 07:38:33;;;;;;;7.40;1.63;;;12.10;99.90;;;;;;6068278;23;20310;-48
2022/11/07 07:40:59;;;;;;;10.53;1.43;;;12.10;99.90;;;;;;6068244;23;20194;-48
2022/11/07 07:43:26;;;;;;;8.93;1.83;;;12.10;99.90;;;;;;6068198;23;20158;-47
2022/11/07 07:45:52;;;;;;;9.27;1.70;;;12.10;99.90;;;;;;6068289;23;20243;-47
2022/11/07 07:48:18;;;;;;;8.27;1.90;;;12.20;99.90;;;;;;6068126;23;20196;-48
2022/11/07 07:50:46;;;;;;;8.43;2.03;;;12.20;99.90;;;;;;6069365;23;20657;-48
2022/11/07 07:53:11;;;;;;;12.23;1.60;;;12.20;99.90;;;;;;6070949;23;20170;-48
2022/11/07 07:55:37;;;;;;;8.33;2.10;;;12.30;99.90;;;;;;6069965;23;20163;-49
2022/11/07 07:58:02;;;;;;;9.57;2.00;;;12.30;99.90;;;;;;6069918;23;20175;-48
2022/11/07 08:00:28;;;;;;;11.53;2.33;;;12.30;99.90;;;;;;6070205;23;20171;-48
2022/11/07 08:03:05;;;;;;;8.50;1.80;;;12.30;99.90;;;;;;6069975;23;20163;-48
2022/11/07 08:05:31;;;;;;;10.37;2.00;;;12.30;99.90;;;;;;6070262;23;20223;-48
2022/11/07 08:07:56;;;;;;;12.33;1.77;;;12.40;99.90;;;;;;6069776;23;20186;-51
2022/11/07 08:10:22;;;;;;;10.90;1.90;;;12.40;99.90;;;;;;6069847;23;20190;-49
2022/11/07 08:12:49;;;;;;;12.53;1.97;;;12.40;99.90;;;;;;6044320;23;20159;-49
2022/11/07 08:15:17;;;;;;;6.63;1.70;;;12.40;99.90;;;;;;6069822;23;20195;-47
2022/11/07 08:17:43;;;;;;;9.63;1.93;;;12.50;99.90;;;;;;6070111;23;20175;-46
2022/11/07 08:20:11;;;;;;;11.80;2.30;;;12.50;99.90;;;;;;6069759;23;20222;-48
2022/11/07 08:22:37;;;;;;;8.10;1.77;;;12.50;99.90;;;;;;6069604;23;20254;-47
2022/11/07 08:25:04;;;;;;;9.27;1.83;;;12.60;99.90;;;;;;6070329;23;20171;-47
2022/11/07 08:27:30;;;;;;;9.67;1.90;;;12.60;99.90;;;;;;6069963;23;20176;-47
2022/11/07 08:29:56;;;;;;;8.13;1.80;;;12.70;99.90;;;;;;6069636;23;20210;-47
2022/11/07 08:32:22;;;;;;;10.97;1.73;;;12.70;99.90;;;;;;6070027;23;20195;-50
2022/11/07 08:34:48;;;;;;;10.40;1.60;;;12.70;99.90;;;;;;6069855;23;20182;-49
2022/11/07 08:37:14;;;;;;;6.67;1.40;;;12.70;99.90;;;;;;6069543;23;20278;-46
2022/11/07 08:39:39;;;;;;;13.00;2.67;;;12.80;99.90;;;;;;6069569;23;20208;-47
2022/11/07 08:42:05;;;;;;;8.17;1.83;;;12.70;99.90;;;;;;6069561;23;20194;-48
2022/11/07 08:44:33;;;;;;;6.93;1.20;;;12.80;99.90;;;;;;6069546;23;20160;-47
2022/11/07 08:46:59;;;;;;;9.40;1.80;;;12.90;99.90;;;;;;6069730;23;20156;-47
2022/11/07 08:49:25;;;;;;;6.90;1.37;;;12.90;99.90;;;;;;6069808;23;20240;-49
2022/11/07 08:51:50;;;;;;;10.80;1.80;;;13.00;99.90;;;;;;6069275;23;20283;-48
2022/11/07 08:54:16;;;;;;;8.97;1.80;;;13.00;99.90;;;;;;6069354;23;20156;-48
2022/11/07 08:56:41;;;;;;;6.27;1.87;;;13.10;99.90;;;;;;6070046;23;20156;-47
2022/11/07 08:59:08;;;;;;;12.17;2.20;;;13.10;99.90;;;;;;6069843;23;20195;-47
2022/11/07 09:01:34;;;;;;;8.90;1.67;;;13.10;99.90;;;;;;6043644;23;20163;-48
2022/11/07 09:04:00;;;;;;;8.30;1.50;;;13.10;99.90;;;;;;6069343;23;20170;-48
2022/11/07 09:06:25;;;;;;;8.63;1.30;;;13.10;99.90;;;;;;6069590;23;20168;-49
2022/11/07 09:08:51;;;;;;;8.60;1.77;;;13.00;99.90;;;;;;6069512;23;20184;-47
2022/11/07 09:11:17;;;;;;;9.33;1.83;;;13.00;99.90;;;;;;6069460;23;20175;-48
2022/11/07 09:13:45;;;;;;;7.90;1.60;;;13.00;99.90;;;;;;6069277;23;20231;-49
2022/11/07 09:16:11;;;;;;;5.70;1.47;;;12.90;99.90;;;;;;6069190;23;20167;-49
2022/11/07 09:18:37;;;;;;;10.73;2.00;;;13.00;99.90;;;;;;6069197;23;20172;-48
2022/11/07 09:21:03;;;;;;;7.97;1.50;;;12.90;99.90;;;;;;6069458;23;20500;-47
2022/11/07 09:23:28;;;;;;;7.67;1.80;;;12.90;99.90;;;;;;6069047;23;20243;-47
2022/11/07 09:25:57;;;;;;;11.37;2.03;;;12.90;99.90;;;;;;6069658;23;20167;-47
2022/11/07 09:28:22;;;;;;;9.33;1.63;;;12.90;99.90;;;;;;6069096;23;20609;-47
2022/11/07 09:30:54;;;;;;;9.40;1.40;;;12.90;99.90;;;;;;6069330;23;20216;-48
2022/11/07 09:33:21;;;;;;;8.00;1.60;;;12.90;99.90;;;;;;6069412;23;20159;-47
2022/11/07 09:35:47;;;;;;;5.57;1.73;;;13.00;99.90;;;;;;6069299;23;20159;-49
2022/11/07 09:38:13;;;;;;;7.60;1.53;;;13.00;99.90;;;;;;6069185;23;20175;-46
2022/11/07 09:41:14;;;;;;;11.13;1.43;;;13.00;99.90;;;;;;6069313;23;20167;-46
2022/11/07 09:43:57;;;;;;;8.40;1.87;;;13.00;99.90;;;;;;6069424;23;20231;-49
2022/11/07 09:46:34;;;;;;;6.73;1.60;;;13.00;99.90;;;;;;6068975;23;20487;-50
2022/11/07 09:49:20;;;;;;;10.77;2.17;;;13.10;99.90;;;;;;6068925;23;20497;-47
2022/11/07 09:52:18;;;;;;;7.53;1.90;;;13.10;99.90;;;;;;6069151;23;20210;-51
2022/11/07 09:54:51;;;;;;;9.83;2.00;;;13.20;99.90;;;;;;6060507;23;20528;-47
2022/11/07 09:57:18;;;;;;;11.50;2.17;;;13.20;99.90;;;;;;6068798;23;20179;-48
2022/11/07 10:00:10;;;;;;;6.90;1.93;;;13.20;99.90;;;;;;6069144;23;20166;-48
2022/11/07 10:02:42;;;;;;;13.73;2.43;;;13.30;99.90;;;;;;6049902;23;20186;-48
2022/11/07 10:05:23;;;;;;;9.33;2.33;;;13.30;99.90;;;;;;6069123;23;20148;-48
2022/11/07 10:08:14;;;;;;;7.23;2.07;;;13.30;99.90;;;;;;6069018;23;20175;-46
2022/11/07 10:10:55;;;;;;;10.20;1.57;;;13.40;99.90;;;;;;6024883;23;20569;-49
2022/11/07 10:13:53;;;;;;;9.00;2.10;;;13.40;99.90;;;;;;6068999;23;20144;-50
2022/11/07 10:16:27;;;;;;;12.50;2.20;;;13.40;99.90;;;;;;6068739;23;20155;-49
2022/11/07 10:19:18;;;;;;;8.40;1.53;;;13.50;99.90;;;;;;6068979;23;20258;-48
2022/11/07 10:22:03;;;;;;;14.23;3.07;;;13.50;99.90;;;;;;6069679;23;20697;-48
2022/11/07 10:24:37;;;;;;;9.07;1.83;;;13.60;99.90;;;;;;6068971;23;20159;-48
2022/11/07 10:27:09;;;;;;;12.17;1.93;;;13.60;99.90;;;;;;6068730;23;20594;-46
2022/11/07 10:29:46;;;;;;;7.67;1.83;;;13.60;99.90;;;;;;6068993;23;20155;-47
2022/11/07 10:32:34;;;;;;;12.60;2.63;;;13.70;99.90;;;;;;6068900;23;20227;-47
2022/11/07 10:35:06;;;;;;;10.03;2.07;;;13.70;99.90;;;;;;6068499;23;20152;-49
2022/11/07 10:37:32;;;;;;;8.37;2.00;;;13.70;99.90;;;;;;6068636;23;20175;-47
2022/11/07 10:39:57;;;;;;;9.70;1.83;;;13.70;99.90;;;;;;6068625;23;20163;-47
2022/11/07 10:42:29;;;;;;;14.20;2.97;;;13.80;99.90;;;;;;6043512;23;20168;-48
2022/11/07 10:44:57;;;;;;;13.03;2.70;;;13.80;99.90;;;;;;6069359;23;20162;-48
2022/11/07 10:47:25;;;;;;;7.87;2.10;;;13.90;99.90;;;;;;6068358;23;20180;-48
2022/11/07 10:50:15;;;;;;;10.73;2.27;;;14.00;99.90;;;;;;6069723;23;20159;-48
2022/11/07 10:52:41;;;;;;;10.00;1.73;;;14.00;99.90;;;;;;6069232;23;20552;-49
2022/11/07 10:55:14;;;;;;;9.67;2.07;;;14.20;99.90;;;;;;6068525;23;20151;-48
2022/11/07 10:57:39;;;;;;;8.63;1.87;;;14.20;99.90;;;;;;6068428;23;20186;-48
2022/11/07 11:00:26;;;;;;;10.40;2.13;;;14.30;99.90;;;;;;6068438;23;20179;-51
2022/11/07 11:02:53;;;;;;;10.37;1.90;;;14.40;99.90;;;;;;6069054;23;20479;-47
2022/11/07 11:05:22;;;;;;;4.23;1.53;;;14.50;99.90;;;;;;6069554;23;20182;-48
2022/11/07 11:07:48;;;;;;;9.03;1.97;;;14.60;99.90;;;;;;6069184;23;20175;-46
2022/11/07 11:10:40;;;;;;;9.03;1.73;;;14.60;99.90;;;;;;6068578;23;20514;-49
2022/11/07 11:13:05;;;;;;;12.83;1.90;;;14.60;99.90;;;;;;6063309;23;20160;-50
2022/11/07 11:15:41;;;;;;;10.70;1.50;;;14.70;99.90;;;;;;6069467;23;20179;-48
2022/11/07 11:18:15;;;;;;;9.87;1.67;;;14.70;99.90;;;;;;6068902;23;20605;-48
2022/11/07 11:20:55;;;;;;;10.17;1.83;;;14.70;99.90;;;;;;6069046;23;20485;-49
2022/11/07 11:23:24;;;;;;;9.63;1.63;;;14.60;99.90;;;;;;6061072;23;20206;-50
2022/11/07 11:25:57;;;;;;;7.83;1.97;;;14.60;99.90;;;;;;6070388;23;20156;-49
2022/11/07 11:28:29;;;;;;;10.60;1.80;;;14.60;99.90;;;;;;6071698;23;20187;-48
2022/11/07 11:31:04;;;;;;;5.73;1.87;;;14.50;99.90;;;;;;6070943;23;20512;-49
2022/11/07 11:33:37;;;;;;;9.17;1.70;;;14.50;99.90;;;;;;6069096;23;20151;-47
2022/11/07 11:36:12;;;;;;;8.57;1.77;;;14.50;99.90;;;;;;6070287;23;20144;-48
2022/11/07 11:38:38;;;;;;;6.90;2.10;;;14.50;99.90;;;;;;6070296;23;20629;-49
2022/11/07 11:41:12;;;;;;;8.20;1.60;;;14.50;99.90;;;;;;6070486;23;20223;-50
2022/11/07 11:43:49;;;;;;;6.50;2.00;;;14.50;99.90;;;;;;6070894;23;20159;-48
2022/11/07 11:46:37;;;;;;;9.23;1.70;;;14.50;99.90;;;;;;6068743;23;20244;-49
2022/11/07 11:49:18;;;;;;;7.50;1.50;;;14.50;99.90;;;;;;6070336;23;20182;-47
2022/11/07 11:51:51;;;;;;;6.13;1.30;;;14.60;99.90;;;;;;6070335;23;20183;-49
2022/11/07 11:54:17;;;;;;;3.97;1.07;;;14.60;99.90;;;;;;6070790;23;20203;-48
2022/11/07 11:56:46;;;;;;;6.70;1.60;;;14.60;99.90;;;;;;6070401;23;20596;-49
2022/11/07 11:59:31;;;;;;;7.10;1.90;;;14.60;99.90;;;;;;6070309;23;20178;-49
2022/11/07 12:02:21;;;;;;;8.67;1.67;;;14.70;99.90;;;;;;6070552;23;20241;-49
2022/11/07 12:05:10;;;;;;;5.93;1.57;;;14.80;99.90;;;;;;6070455;23;20483;-47
2022/11/07 12:08:01;;;;;;;4.23;1.30;;;14.80;99.90;;;;;;6070765;23;20207;-48
2022/11/07 12:10:38;;;;;;;7.47;1.40;;;14.80;99.90;;;;;;6070719;23;20603;-48
2022/11/07 12:13:21;;;;;;;8.63;1.93;;;14.90;99.90;;;;;;6070281;23;20158;-49
2022/11/07 12:16:19;;;;;;;9.83;2.60;;;14.90;99.90;;;;;;6070586;23;20150;-48
2022/11/07 12:19:16;;;;;;;3.97;1.07;;;14.90;99.90;;;;;;6070128;23;20190;-49
2022/11/07 12:22:07;;;;;;;8.77;1.20;;;15.00;99.90;;;;;;6070674;23;20168;-48
2022/11/07 12:24:43;;;;;;;10.93;1.53;;;15.00;99.90;;;;;;6070375;23;20607;-48
2022/11/07 12:27:28;;;;;;;7.13;1.50;;;15.10;99.90;;;;;;6069998;23;20179;-48
2022/11/07 12:30:06;;;;;;;7.10;1.63;;;15.10;99.90;;;;;;6069680;23;20159;-49
2022/11/07 12:33:00;;;;;;;7.87;1.60;;;15.10;99.90;;;;;;6070169;23;20151;-50
2022/11/07 12:35:52;;;;;;;6.40;1.43;;;15.10;99.90;;;;;;6069504;23;20155;-50
2022/11/07 12:38:56;;;;;;;9.67;1.63;;;15.10;99.90;;;;;;6044164;23;20187;-50
2022/11/07 12:42:03;;;;;;;4.00;1.53;;;15.10;99.90;;;;;;6025577;23;20170;-50
2022/11/07 12:44:50;;;;;;;6.07;1.57;;;15.10;99.90;;;;;;6054850;23;20160;-47
2022/11/07 12:47:31;;;;;;;7.13;1.60;;;15.20;99.90;;;;;;6069824;23;20235;-48
2022/11/07 12:50:16;;;;;;;5.00;1.37;;;15.20;99.90;;;;;;6069585;23;20144;-48
2022/11/07 12:52:51;;;;;;;7.37;1.73;;;15.20;99.90;;;;;;6069642;23;20467;-48
2022/11/07 12:55:32;;;;;;;8.63;1.80;;;15.20;99.90;;;;;;6069622;23;20151;-48
2022/11/07 12:58:00;;;;;;;4.50;1.10;;;15.20;99.90;;;;;;6044867;23;20676;-49
2022/11/07 13:00:27;;;;;;;7.43;1.53;;;15.20;99.90;;;;;;6069473;23;20266;-48
2022/11/07 13:03:16;;;;;;;10.33;1.57;;;15.20;99.90;;;;;;6069891;23;20164;-45
2022/11/07 13:06:01;;;;;;;4.13;1.40;;;15.20;99.90;;;;;;6069674;23;20144;-45
2022/11/07 13:08:50;;;;;;;4.13;1.27;;;15.30;99.90;;;;;;6069914;23;20254;-43